MSC Katie — 3FMO6 — position and weather

sailwx.info

Track history (hours):
 
Tides and Currents Weather Stations Pressure Air Temp Water Temp Dewpoint Dewpoint Depression Visibility Wind Speed Wind Dir Waves Ship Positions

MSC Katie

Last reported at 2017-Dec-27 16:46 UTC. Time now 2018-Jan-23 20:20 UTC.
Position N 25°28' E 121°08'.
Warning: this ship's position is 27 days out of date.

Length 366 m; draft 12 m.

Type: Ship (hazmat cat A). MMSI: 351848000.

Date/timePositionNaut miles runAvg speedWind from/ knotsBaromVisibWave heightAir tempDewpointWater temp
2017-Dec-27 16:46N 25°28' E 121°08'520.0
2017-Dec-27 16:30N 25°24' E 121°05'1019.8
2017-Dec-27 16:00N 25°17' E 120°58'1119.9
2017-Dec-27 15:28N 25°08' E 120°51'9119.3
2017-Dec-27 10:45N 23°52' E 119°57'519.2
2017-Dec-27 10:30N 23°47' E 119°55'1020.2
2017-Dec-27 10:01N 23°37' E 119°53'1020.7
2017-Dec-27 09:30N 23°27' E 119°54'1121.2
2017-Dec-27 09:01N 23°17' E 119°54'1321.2
2017-Dec-27 08:25N 23°04' E 119°56'921.3
2017-Dec-27 08:01N 22°55' E 119°56'1121.5
2017-Dec-27 07:30N 22°45' E 119°59'1121.2
2017-Dec-27 07:00N 22°37' E 120°06'917.2
2017-Dec-27 06:31N 22°33' E 120°14'4 8.8
2017-Dec-27 06:00N 22°33' E 120°19'1 1.1
2017-Dec-27 05:29N 22°34' E 120°19'0 0.0
2017-Dec-27 04:59N 22°34' E 120°19'0 0.0
2017-Dec-27 04:29N 22°34' E 120°19'0 0.0
2017-Dec-27 03:59N 22°34' E 120°19'0 0.0
2017-Dec-27 03:29N 22°34' E 120°19'0 0.0
2017-Dec-27 02:59N 22°34' E 120°19'0 0.0
2017-Dec-27 02:29N 22°34' E 120°19'0 0.0
2017-Dec-27 01:59N 22°34' E 120°19'0 0.0
2017-Dec-27 01:29N 22°34' E 120°19'0 0.0
2017-Dec-27 00:59N 22°34' E 120°19'0 0.0
2017-Dec-27 00:29N 22°34' E 120°19'0 0.0
2017-Dec-26 23:59N 22°34' E 120°19'0 0.0
2017-Dec-26 23:29N 22°34' E 120°19'0 0.0
2017-Dec-26 22:59N 22°34' E 120°19'0 0.0
2017-Dec-26 22:29N 22°34' E 120°19'0 0.0
2017-Dec-26 21:59N 22°34' E 120°19'0 0.0
2017-Dec-26 21:29N 22°34' E 120°19'0 0.0
2017-Dec-26 20:59N 22°34' E 120°19'0 0.0
2017-Dec-26 20:29N 22°34' E 120°19'0 0.0
2017-Dec-26 19:59N 22°34' E 120°19'0 0.0
2017-Dec-26 19:29N 22°34' E 120°19'0 0.0
2017-Dec-26 19:00N 22°34' E 120°19'1 1.9
2017-Dec-26 18:30N 22°33' E 120°18'3 6.0
2017-Dec-26 18:00N 22°32' E 120°15'3 5.8
2017-Dec-26 17:30N 22°32' E 120°12'612.6
2017-Dec-26 17:01N 22°30' E 120°06'816.3
2017-Dec-26 16:30N 22°29' E 119°57'1019.4
2017-Dec-26 16:00N 22°27' E 119°47'1019.7
2017-Dec-26 15:30N 22°25' E 119°36'1020.5
2017-Dec-26 15:00N 22°25' E 119°25'29119.1
2017-Dec-25 23:45N 22°12' E 114°11'4 7.9
2017-Dec-25 23:16N 22°14' E 114°08'10 0.3
2017-Dec-24 16:44N 22°05' E 114°12'0 0.0
2017-Dec-24 16:29N 22°05' E 114°12'8 3.6
2017-Dec-24 14:13N 22°13' E 114°10'2 8.3
2017-Dec-24 13:58N 22°14' E 114°08'511.2
2017-Dec-24 13:30N 22°18' E 114°05'4 8.7
2017-Dec-24 13:00N 22°21' E 114°02'510.3
2017-Dec-24 12:30N 22°21' E 113°56'266 6.8
2017-Dec-22 21:15N 23°56' E 118°26'621.1
2017-Dec-22 20:57N 24°03' E 118°25'919.8
2017-Dec-22 20:30N 24°10' E 118°20'816.2
2017-Dec-22 20:01N 24°16' E 118°14'612.4
2017-Dec-22 19:30N 24°21' E 118°10'510.2
2017-Dec-22 19:00N 24°24' E 118°06'5 9.0
2017-Dec-22 18:29N 24°26' E 118°01'0 0.4
2017-Dec-22 17:59N 24°27' E 118°01'0 0.0
2017-Dec-22 17:29N 24°27' E 118°01'0 0.0
2017-Dec-22 16:59N 24°27' E 118°01'0 0.0
2017-Dec-22 16:29N 24°27' E 118°01'0 0.0
2017-Dec-22 15:53N 24°27' E 118°01'0 0.0
2017-Dec-22 15:17N 24°27' E 118°01'0 0.0
2017-Dec-22 14:20N 24°27' E 118°01'0 0.0
2017-Dec-22 13:59N 24°27' E 118°01'0 0.0
2017-Dec-22 13:29N 24°27' E 118°01'0 0.0
2017-Dec-22 12:59N 24°27' E 118°01'0 0.0
2017-Dec-22 12:29N 24°27' E 118°01'0 0.0
2017-Dec-22 11:56N 24°27' E 118°01'0 0.0
2017-Dec-22 11:26N 24°27' E 118°01'0 0.0
2017-Dec-22 10:59N 24°27' E 118°01'0 0.0
2017-Dec-22 10:26N 24°27' E 118°01'0 0.0
2017-Dec-22 09:50N 24°27' E 118°01'0 0.0
2017-Dec-22 09:29N 24°27' E 118°01'0 0.0
2017-Dec-22 08:56N 24°27' E 118°01'0 0.0
2017-Dec-22 08:29N 24°27' E 118°01'0 0.0
2017-Dec-22 07:59N 24°27' E 118°01'0 0.0
2017-Dec-22 07:26N 24°27' E 118°01'0 0.0
2017-Dec-22 06:53N 24°27' E 118°01'0 0.0
2017-Dec-22 06:26N 24°27' E 118°01'0 0.0
2017-Dec-22 05:59N 24°27' E 118°01'0 0.0
2017-Dec-22 05:29N 24°27' E 118°01'0 0.0
2017-Dec-22 04:59N 24°27' E 118°01'0 0.0
2017-Dec-22 04:29N 24°27' E 118°01'0 0.0
2017-Dec-22 03:59N 24°27' E 118°01'0 0.0
2017-Dec-22 03:23N 24°27' E 118°01'0 0.0
2017-Dec-22 02:59N 24°27' E 118°01'0 0.0
2017-Dec-22 02:29N 24°27' E 118°01'0 0.0
2017-Dec-22 01:56N 24°27' E 118°01'0 0.0
2017-Dec-22 01:29N 24°27' E 118°01'0 0.0
2017-Dec-22 00:59N 24°27' E 118°01'0 0.0
2017-Dec-22 00:29N 24°27' E 118°01'0 0.0
2017-Dec-21 23:59N 24°27' E 118°01'0 0.0
2017-Dec-21 23:29N 24°27' E 118°01'0 0.0
2017-Dec-21 22:59N 24°27' E 118°01'0 0.0
2017-Dec-21 22:29N 24°27' E 118°01'0 0.0
2017-Dec-21 21:56N 24°27' E 118°01'0 0.0
2017-Dec-21 21:29N 24°27' E 118°01'0 0.0
2017-Dec-21 20:59N 24°27' E 118°01'0 0.0
2017-Dec-21 20:23N 24°27' E 118°01'0 0.0
2017-Dec-21 19:59N 24°27' E 118°01'0 0.0
2017-Dec-21 19:26N 24°27' E 118°01'0 0.2
2017-Dec-21 19:00N 24°27' E 118°01'2 4.2
2017-Dec-21 18:30N 24°26' E 118°03'611.4
2017-Dec-21 18:01N 24°22' E 118°08'510.1
2017-Dec-21 17:31N 24°19' E 118°12'613.0
2017-Dec-21 17:01N 24°14' E 118°17'510.9
2017-Dec-21 16:31N 24°12' E 118°22'713.6
2017-Dec-21 16:00N 24°12' E 118°30'1020.9
2017-Dec-21 15:30N 24°16' E 118°40'1121.0
2017-Dec-21 14:59N 24°19' E 118°52'41617.2
2017-Dec-20 14:51N 30°33' E 122°19'5 8.5
2017-Dec-20 14:19N 30°33' E 122°14'512.9
2017-Dec-20 13:55N 30°35' E 122°08'5 0.2
2017-Dec-19 15:47N 30°37' E 122°03'1 2.7
2017-Dec-19 15:30N 30°38' E 122°03'1 2.4
2017-Dec-19 14:54N 30°37' E 122°04'  
Track history (hours):
 
Tides and Currents Weather Stations Pressure Air Temp Water Temp Dewpoint Dewpoint Depression Visibility Wind Speed Wind Dir Waves Ship Positions

MSC Katie

Last reported at 2017-Dec-27 16:46 UTC. Time now 2018-Jan-23 20:20 UTC.
Position N 25°28' E 121°08'.
Warning: this ship's position is 27 days out of date.

Length 366 m; draft 12 m.

Type: Ship (hazmat cat A). MMSI: 351848000.

Date/timePositionNaut miles runAvg speedWind from/ knotsBaromVisibWave heightAir tempDewpointWater temp
2017-Dec-27 16:46N 25°28' E 121°08'520.0
2017-Dec-27 16:30N 25°24' E 121°05'1019.8
2017-Dec-27 16:00N 25°17' E 120°58'1119.9
2017-Dec-27 15:28N 25°08' E 120°51'9119.3
2017-Dec-27 10:45N 23°52' E 119°57'519.2
2017-Dec-27 10:30N 23°47' E 119°55'1020.2
2017-Dec-27 10:01N 23°37' E 119°53'1020.7
2017-Dec-27 09:30N 23°27' E 119°54'1121.2
2017-Dec-27 09:01N 23°17' E 119°54'1321.2
2017-Dec-27 08:25N 23°04' E 119°56'921.3
2017-Dec-27 08:01N 22°55' E 119°56'1121.5
2017-Dec-27 07:30N 22°45' E 119°59'1121.2
2017-Dec-27 07:00N 22°37' E 120°06'917.2
2017-Dec-27 06:31N 22°33' E 120°14'4 8.8
2017-Dec-27 06:00N 22°33' E 120°19'1 1.1
2017-Dec-27 05:29N 22°34' E 120°19'0 0.0
2017-Dec-27 04:59N 22°34' E 120°19'0 0.0
2017-Dec-27 04:29N 22°34' E 120°19'0 0.0
2017-Dec-27 03:59N 22°34' E 120°19'0 0.0
2017-Dec-27 03:29N 22°34' E 120°19'0 0.0
2017-Dec-27 02:59N 22°34' E 120°19'0 0.0
2017-Dec-27 02:29N 22°34' E 120°19'0 0.0
2017-Dec-27 01:59N 22°34' E 120°19'0 0.0
2017-Dec-27 01:29N 22°34' E 120°19'0 0.0
2017-Dec-27 00:59N 22°34' E 120°19'0 0.0
2017-Dec-27 00:29N 22°34' E 120°19'0 0.0
2017-Dec-26 23:59N 22°34' E 120°19'0 0.0
2017-Dec-26 23:29N 22°34' E 120°19'0 0.0
2017-Dec-26 22:59N 22°34' E 120°19'0 0.0
2017-Dec-26 22:29N 22°34' E 120°19'0 0.0
2017-Dec-26 21:59N 22°34' E 120°19'0 0.0
2017-Dec-26 21:29N 22°34' E 120°19'0 0.0
2017-Dec-26 20:59N 22°34' E 120°19'0 0.0
2017-Dec-26 20:29N 22°34' E 120°19'0 0.0
2017-Dec-26 19:59N 22°34' E 120°19'0 0.0
2017-Dec-26 19:29N 22°34' E 120°19'0 0.0
2017-Dec-26 19:00N 22°34' E 120°19'1 1.9
2017-Dec-26 18:30N 22°33' E 120°18'3 6.0
2017-Dec-26 18:00N 22°32' E 120°15'3 5.8
2017-Dec-26 17:30N 22°32' E 120°12'612.6
2017-Dec-26 17:01N 22°30' E 120°06'816.3
2017-Dec-26 16:30N 22°29' E 119°57'1019.4
2017-Dec-26 16:00N 22°27' E 119°47'1019.7
2017-Dec-26 15:30N 22°25' E 119°36'1020.5
2017-Dec-26 15:00N 22°25' E 119°25'29119.1
2017-Dec-25 23:45N 22°12' E 114°11'4 7.9
2017-Dec-25 23:16N 22°14' E 114°08'10 0.3
2017-Dec-24 16:44N 22°05' E 114°12'0 0.0
2017-Dec-24 16:29N 22°05' E 114°12'8 3.6
2017-Dec-24 14:13N 22°13' E 114°10'2 8.3
2017-Dec-24 13:58N 22°14' E 114°08'511.2
2017-Dec-24 13:30N 22°18' E 114°05'4 8.7
2017-Dec-24 13:00N 22°21' E 114°02'510.3
2017-Dec-24 12:30N 22°21' E 113°56'266 6.8
2017-Dec-22 21:15N 23°56' E 118°26'621.1
2017-Dec-22 20:57N 24°03' E 118°25'919.8
2017-Dec-22 20:30N 24°10' E 118°20'816.2
2017-Dec-22 20:01N 24°16' E 118°14'612.4
2017-Dec-22 19:30N 24°21' E 118°10'510.2
2017-Dec-22 19:00N 24°24' E 118°06'5 9.0
2017-Dec-22 18:29N 24°26' E 118°01'0 0.4
2017-Dec-22 17:59N 24°27' E 118°01'0 0.0
2017-Dec-22 17:29N 24°27' E 118°01'0 0.0
2017-Dec-22 16:59N 24°27' E 118°01'0 0.0
2017-Dec-22 16:29N 24°27' E 118°01'0 0.0
2017-Dec-22 15:53N 24°27' E 118°01'0 0.0
2017-Dec-22 15:17N 24°27' E 118°01'0 0.0
2017-Dec-22 14:20N 24°27' E 118°01'0 0.0
2017-Dec-22 13:59N 24°27' E 118°01'0 0.0
2017-Dec-22 13:29N 24°27' E 118°01'0 0.0
2017-Dec-22 12:59N 24°27' E 118°01'0 0.0
2017-Dec-22 12:29N 24°27' E 118°01'0 0.0
2017-Dec-22 11:56N 24°27' E 118°01'0 0.0
2017-Dec-22 11:26N 24°27' E 118°01'0 0.0
2017-Dec-22 10:59N 24°27' E 118°01'0 0.0
2017-Dec-22 10:26N 24°27' E 118°01'0 0.0
2017-Dec-22 09:50N 24°27' E 118°01'0 0.0
2017-Dec-22 09:29N 24°27' E 118°01'0 0.0
2017-Dec-22 08:56N 24°27' E 118°01'0 0.0
2017-Dec-22 08:29N 24°27' E 118°01'0 0.0
2017-Dec-22 07:59N 24°27' E 118°01'0 0.0
2017-Dec-22 07:26N 24°27' E 118°01'0 0.0
2017-Dec-22 06:53N 24°27' E 118°01'0 0.0
2017-Dec-22 06:26N 24°27' E 118°01'0 0.0
2017-Dec-22 05:59N 24°27' E 118°01'0 0.0
2017-Dec-22 05:29N 24°27' E 118°01'0 0.0
2017-Dec-22 04:59N 24°27' E 118°01'0 0.0
2017-Dec-22 04:29N 24°27' E 118°01'0 0.0
2017-Dec-22 03:59N 24°27' E 118°01'0 0.0
2017-Dec-22 03:23N 24°27' E 118°01'0 0.0
2017-Dec-22 02:59N 24°27' E 118°01'0 0.0
2017-Dec-22 02:29N 24°27' E 118°01'0 0.0
2017-Dec-22 01:56N 24°27' E 118°01'0 0.0
2017-Dec-22 01:29N 24°27' E 118°01'0 0.0
2017-Dec-22 00:59N 24°27' E 118°01'0 0.0
2017-Dec-22 00:29N 24°27' E 118°01'0 0.0
2017-Dec-21 23:59N 24°27' E 118°01'0 0.0
2017-Dec-21 23:29N 24°27' E 118°01'0 0.0
2017-Dec-21 22:59N 24°27' E 118°01'0 0.0
2017-Dec-21 22:29N 24°27' E 118°01'0 0.0
2017-Dec-21 21:56N 24°27' E 118°01'0 0.0
2017-Dec-21 21:29N 24°27' E 118°01'0 0.0
2017-Dec-21 20:59N 24°27' E 118°01'0 0.0
2017-Dec-21 20:23N 24°27' E 118°01'0 0.0
2017-Dec-21 19:59N 24°27' E 118°01'0 0.0
2017-Dec-21 19:26N 24°27' E 118°01'0 0.2
2017-Dec-21 19:00N 24°27' E 118°01'2 4.2
2017-Dec-21 18:30N 24°26' E 118°03'611.4
2017-Dec-21 18:01N 24°22' E 118°08'510.1
2017-Dec-21 17:31N 24°19' E 118°12'613.0
2017-Dec-21 17:01N 24°14' E 118°17'510.9
2017-Dec-21 16:31N 24°12' E 118°22'713.6
2017-Dec-21 16:00N 24°12' E 118°30'1020.9
2017-Dec-21 15:30N 24°16' E 118°40'1121.0
2017-Dec-21 14:59N 24°19' E 118°52'41617.2
2017-Dec-20 14:51N 30°33' E 122°19'5 8.5
2017-Dec-20 14:19N 30°33' E 122°14'512.9
2017-Dec-20 13:55N 30°35' E 122°08'5 0.2
2017-Dec-19 15:47N 30°37' E 122°03'1 2.7
2017-Dec-19 15:30N 30°38' E 122°03'1 2.4
2017-Dec-19 14:54N 30°37' E 122°04'  

Dump ship's entire track history